sensor_id;sensor_type;location;lat;lon;timestamp;P1;durP1;ratioP1;P2;durP2;ratioP2
32329;SDS011;18807;52.434;13.238;2023-08-01T00:06:00;6.88;;;4.32;;
32329;SDS011;18807;52.434;13.238;2023-08-01T00:13:36;5.05;;;3.60;;
32329;SDS011;18807;52.434;13.238;2023-08-01T00:21:11;4.50;;;3.28;;
32329;SDS011;18807;52.434;13.238;2023-08-01T00:28:46;5.43;;;2.87;;
32329;SDS011;18807;52.434;13.238;2023-08-01T00:36:21;4.68;;;3.17;;
32329;SDS011;18807;52.434;13.238;2023-08-01T00:43:57;5.40;;;2.77;;
32329;SDS011;18807;52.434;13.238;2023-08-01T00:51:31;4.30;;;2.50;;
32329;SDS011;18807;52.434;13.238;2023-08-01T00:59:08;3.50;;;2.50;;
32329;SDS011;18807;52.434;13.238;2023-08-01T01:06:44;6.22;;;2.85;;
32329;SDS011;18807;52.434;13.238;2023-08-01T01:14:23;3.60;;;2.70;;
32329;SDS011;18807;52.434;13.238;2023-08-01T01:21:59;5.03;;;2.80;;
32329;SDS011;18807;52.434;13.238;2023-08-01T01:29:37;4.88;;;2.63;;
32329;SDS011;18807;52.434;13.238;2023-08-01T01:37:14;3.30;;;2.85;;
32329;SDS011;18807;52.434;13.238;2023-08-01T01:44:48;4.78;;;3.28;;
32329;SDS011;18807;52.434;13.238;2023-08-01T01:52:25;6.37;;;3.87;;
32329;SDS011;18807;52.434;13.238;2023-08-01T01:59:59;7.57;;;3.33;;
32329;SDS011;18807;52.434;13.238;2023-08-01T02:07:35;6.23;;;3.60;;
32329;SDS011;18807;52.434;13.238;2023-08-01T02:15:09;5.63;;;3.45;;
32329;SDS011;18807;52.434;13.238;2023-08-01T02:22:45;5.07;;;3.20;;
32329;SDS011;18807;52.434;13.238;2023-08-01T02:30:19;5.50;;;3.75;;
32329;SDS011;18807;52.434;13.238;2023-08-01T02:37:55;6.95;;;3.83;;
32329;SDS011;18807;52.434;13.238;2023-08-01T02:45:30;4.15;;;3.63;;
32329;SDS011;18807;52.434;13.238;2023-08-01T02:53:05;6.67;;;4.47;;
32329;SDS011;18807;52.434;13.238;2023-08-01T03:00:40;5.45;;;4.18;;
32329;SDS011;18807;52.434;13.238;2023-08-01T03:08:17;5.20;;;3.97;;
32329;SDS011;18807;52.434;13.238;2023-08-01T03:15:51;6.30;;;4.35;;
32329;SDS011;18807;52.434;13.238;2023-08-01T03:23:28;5.35;;;3.35;;
32329;SDS011;18807;52.434;13.238;2023-08-01T03:31:02;3.75;;;3.20;;
32329;SDS011;18807;52.434;13.238;2023-08-01T03:38:38;5.83;;;3.57;;
32329;SDS011;18807;52.434;13.238;2023-08-01T03:46:13;5.53;;;3.50;;
32329;SDS011;18807;52.434;13.238;2023-08-01T03:53:49;5.95;;;3.30;;
32329;SDS011;18807;52.434;13.238;2023-08-01T04:01:38;4.03;;;3.03;;
32329;SDS011;18807;52.434;13.238;2023-08-01T04:09:14;5.73;;;3.60;;
32329;SDS011;18807;52.434;13.238;2023-08-01T04:16:49;4.38;;;2.80;;
32329;SDS011;18807;52.434;13.238;2023-08-01T04:24:24;8.07;;;3.90;;
32329;SDS011;18807;52.434;13.238;2023-08-01T04:32:00;4.90;;;3.05;;
32329;SDS011;18807;52.434;13.238;2023-08-01T04:39:36;4.07;;;3.22;;
32329;SDS011;18807;52.434;13.238;2023-08-01T04:47:10;5.35;;;2.75;;
32329;SDS011;18807;52.434;13.238;2023-08-01T04:54:48;3.72;;;2.67;;
32329;SDS011;18807;52.434;13.238;2023-08-01T05:02:22;4.30;;;3.30;;
32329;SDS011;18807;52.434;13.238;2023-08-01T05:09:57;7.83;;;3.50;;
32329;SDS011;18807;52.434;13.238;2023-08-01T05:17:32;5.70;;;2.88;;
32329;SDS011;18807;52.434;13.238;2023-08-01T05:25:08;5.87;;;2.97;;
32329;SDS011;18807;52.434;13.238;2023-08-01T05:32:42;4.03;;;2.83;;
32329;SDS011;18807;52.434;13.238;2023-08-01T05:40:20;3.85;;;2.83;;
32329;SDS011;18807;52.434;13.238;2023-08-01T05:47:55;5.75;;;4.47;;
32329;SDS011;18807;52.434;13.238;2023-08-01T05:55:31;9.83;;;7.33;;
32329;SDS011;18807;52.434;13.238;2023-08-01T06:03:05;5.88;;;4.28;;
32329;SDS011;18807;52.434;13.238;2023-08-01T06:10:42;4.53;;;3.53;;
32329;SDS011;18807;52.434;13.238;2023-08-01T06:18:16;3.65;;;2.80;;
32329;SDS011;18807;52.434;13.238;2023-08-01T06:25:52;4.37;;;3.47;;
32329;SDS011;18807;52.434;13.238;2023-08-01T06:33:26;4.30;;;3.28;;
32329;SDS011;18807;52.434;13.238;2023-08-01T06:41:02;3.53;;;2.67;;
32329;SDS011;18807;52.434;13.238;2023-08-01T06:48:37;4.07;;;2.60;;
32329;SDS011;18807;52.434;13.238;2023-08-01T06:56:13;4.07;;;2.63;;
32329;SDS011;18807;52.434;13.238;2023-08-01T07:03:48;5.60;;;2.95;;
32329;SDS011;18807;52.434;13.238;2023-08-01T07:11:25;5.50;;;3.25;;
32329;SDS011;18807;52.434;13.238;2023-08-01T07:19:00;7.30;;;2.72;;
32329;SDS011;18807;52.434;13.238;2023-08-01T07:26:36;2.60;;;2.30;;
32329;SDS011;18807;52.434;13.238;2023-08-01T07:34:10;8.02;;;2.92;;
32329;SDS011;18807;52.434;13.238;2023-08-01T07:41:46;5.93;;;3.00;;
32329;SDS011;18807;52.434;13.238;2023-08-01T07:49:21;4.03;;;2.22;;
32329;SDS011;18807;52.434;13.238;2023-08-01T07:56:56;4.63;;;2.83;;
32329;SDS011;18807;52.434;13.238;2023-08-01T08:04:31;2.55;;;2.08;;
32329;SDS011;18807;52.434;13.238;2023-08-01T08:12:07;2.50;;;2.20;;
32329;SDS011;18807;52.434;13.238;2023-08-01T08:19:41;3.00;;;2.38;;
32329;SDS011;18807;52.434;13.238;2023-08-01T08:27:17;2.50;;;1.93;;
32329;SDS011;18807;52.434;13.238;2023-08-01T08:34:52;3.05;;;1.80;;
32329;SDS011;18807;52.434;13.238;2023-08-01T08:42:45;3.22;;;2.15;;
32329;SDS011;18807;52.434;13.238;2023-08-01T08:50:21;6.72;;;1.80;;
32329;SDS011;18807;52.434;13.238;2023-08-01T08:57:59;2.83;;;1.60;;
32329;SDS011;18807;52.434;13.238;2023-08-01T09:05:35;1.33;;;1.23;;
32329;SDS011;18807;52.434;13.238;2023-08-01T09:13:16;1.10;;;1.00;;
32329;SDS011;18807;52.434;13.238;2023-08-01T09:20:50;1.70;;;0.82;;
32329;SDS011;18807;52.434;13.238;2023-08-01T09:28:26;1.47;;;1.33;;
32329;SDS011;18807;52.434;13.238;2023-08-01T09:36:00;2.50;;;1.15;;
32329;SDS011;18807;52.434;13.238;2023-08-01T09:43:39;1.20;;;0.88;;
32329;SDS011;18807;52.434;13.238;2023-08-01T09:51:14;1.95;;;0.70;;
32329;SDS011;18807;52.434;13.238;2023-08-01T09:58:52;1.33;;;0.85;;
32329;SDS011;18807;52.434;13.238;2023-08-01T10:06:28;0.60;;;0.50;;
32329;SDS011;18807;52.434;13.238;2023-08-01T10:14:07;1.73;;;0.60;;
32329;SDS011;18807;52.434;13.238;2023-08-01T10:21:42;2.15;;;0.90;;
32329;SDS011;18807;52.434;13.238;2023-08-01T10:29:19;0.57;;;0.47;;
32329;SDS011;18807;52.434;13.238;2023-08-01T10:37:14;1.38;;;0.50;;
32329;SDS011;18807;52.434;13.238;2023-08-01T10:44:51;1.13;;;0.43;;
32329;SDS011;18807;52.434;13.238;2023-08-01T10:52:26;0.65;;;0.50;;
32329;SDS011;18807;52.434;13.238;2023-08-01T11:00:03;0.77;;;0.50;;
32329;SDS011;18807;52.434;13.238;2023-08-01T11:07:42;1.02;;;0.52;;
32329;SDS011;18807;52.434;13.238;2023-08-01T11:15:30;1.70;;;1.20;;
32329;SDS011;18807;52.434;13.238;2023-08-01T11:23:05;2.53;;;1.08;;
32329;SDS011;18807;52.434;13.238;2023-08-01T11:30:42;2.15;;;1.52;;
32329;SDS011;18807;52.434;13.238;2023-08-01T11:38:19;2.88;;;1.70;;
32329;SDS011;18807;52.434;13.238;2023-08-01T11:45:58;3.38;;;2.45;;
32329;SDS011;18807;52.434;13.238;2023-08-01T11:53:33;3.83;;;2.40;;
32329;SDS011;18807;52.434;13.238;2023-08-01T12:01:13;4.90;;;3.15;;
32329;SDS011;18807;52.434;13.238;2023-08-01T12:08:49;7.20;;;3.42;;
32329;SDS011;18807;52.434;13.238;2023-08-01T12:16:25;4.75;;;2.80;;
32329;SDS011;18807;52.434;13.238;2023-08-01T12:24:02;5.13;;;3.70;;
32329;SDS011;18807;52.434;13.238;2023-08-01T12:31:39;8.25;;;3.30;;
32329;SDS011;18807;52.434;13.238;2023-08-01T12:39:13;4.10;;;2.90;;
32329;SDS011;18807;52.434;13.238;2023-08-01T12:46:48;3.93;;;2.57;;
32329;SDS011;18807;52.434;13.238;2023-08-01T12:54:22;6.32;;;3.22;;
32329;SDS011;18807;52.434;13.238;2023-08-01T13:01:58;4.43;;;2.80;;
32329;SDS011;18807;52.434;13.238;2023-08-01T13:09:40;6.53;;;3.00;;
32329;SDS011;18807;52.434;13.238;2023-08-01T13:17:18;6.30;;;3.78;;
32329;SDS011;18807;52.434;13.238;2023-08-01T13:24:52;5.32;;;3.05;;
32329;SDS011;18807;52.434;13.238;2023-08-01T13:32:28;4.10;;;2.80;;
32329;SDS011;18807;52.434;13.238;2023-08-01T13:40:03;3.55;;;2.88;;
32329;SDS011;18807;52.434;13.238;2023-08-01T13:47:39;5.50;;;3.30;;
32329;SDS011;18807;52.434;13.238;2023-08-01T13:55:13;4.57;;;2.58;;
32329;SDS011;18807;52.434;13.238;2023-08-01T14:02:51;7.07;;;3.13;;
32329;SDS011;18807;52.434;13.238;2023-08-01T14:10:26;7.78;;;2.80;;
32329;SDS011;18807;52.434;13.238;2023-08-01T14:18:01;4.00;;;2.67;;
32329;SDS011;18807;52.434;13.238;2023-08-01T14:25:36;12.40;;;3.05;;
32329;SDS011;18807;52.434;13.238;2023-08-01T14:33:12;3.47;;;2.67;;
32329;SDS011;18807;52.434;13.238;2023-08-01T14:40:47;5.72;;;2.75;;
32329;SDS011;18807;52.434;13.238;2023-08-01T14:48:41;4.40;;;2.58;;
32329;SDS011;18807;52.434;13.238;2023-08-01T14:56:16;4.55;;;2.42;;
32329;SDS011;18807;52.434;13.238;2023-08-01T15:03:52;3.72;;;2.47;;
32329;SDS011;18807;52.434;13.238;2023-08-01T15:11:27;3.58;;;2.38;;
32329;SDS011;18807;52.434;13.238;2023-08-01T15:19:03;4.13;;;1.70;;
32329;SDS011;18807;52.434;13.238;2023-08-01T15:26:58;2.17;;;1.40;;
32329;SDS011;18807;52.434;13.238;2023-08-01T15:34:37;1.92;;;1.50;;
32329;SDS011;18807;52.434;13.238;2023-08-01T15:42:12;3.05;;;1.83;;
32329;SDS011;18807;52.434;13.238;2023-08-01T15:49:47;5.28;;;1.40;;
32329;SDS011;18807;52.434;13.238;2023-08-01T15:57:21;1.98;;;1.10;;
32329;SDS011;18807;52.434;13.238;2023-08-01T16:04:57;1.83;;;1.30;;
32329;SDS011;18807;52.434;13.238;2023-08-01T16:12:31;3.67;;;1.60;;
32329;SDS011;18807;52.434;13.238;2023-08-01T16:20:09;2.97;;;1.40;;
32329;SDS011;18807;52.434;13.238;2023-08-01T16:27:44;2.33;;;1.50;;
32329;SDS011;18807;52.434;13.238;2023-08-01T16:35:20;1.70;;;1.10;;
32329;SDS011;18807;52.434;13.238;2023-08-01T16:42:56;3.03;;;1.55;;
32329;SDS011;18807;52.434;13.238;2023-08-01T16:50:32;2.08;;;1.05;;
32329;SDS011;18807;52.434;13.238;2023-08-01T16:58:06;2.25;;;1.13;;
32329;SDS011;18807;52.434;13.238;2023-08-01T17:05:42;2.20;;;1.40;;
32329;SDS011;18807;52.434;13.238;2023-08-01T17:13:17;4.32;;;1.42;;
32329;SDS011;18807;52.434;13.238;2023-08-01T17:20:52;2.80;;;1.38;;
32329;SDS011;18807;52.434;13.238;2023-08-01T17:28:26;2.33;;;1.35;;
32329;SDS011;18807;52.434;13.238;2023-08-01T17:36:02;1.60;;;1.50;;
32329;SDS011;18807;52.434;13.238;2023-08-01T17:43:37;1.98;;;1.20;;
32329;SDS011;18807;52.434;13.238;2023-08-01T17:51:12;1.90;;;1.27;;
32329;SDS011;18807;52.434;13.238;2023-08-01T17:58:47;2.45;;;1.35;;
32329;SDS011;18807;52.434;13.238;2023-08-01T18:06:23;2.97;;;1.00;;
32329;SDS011;18807;52.434;13.238;2023-08-01T18:13:57;2.55;;;1.00;;
32329;SDS011;18807;52.434;13.238;2023-08-01T18:21:34;2.15;;;1.23;;
32329;SDS011;18807;52.434;13.238;2023-08-01T18:29:09;2.70;;;1.40;;
32329;SDS011;18807;52.434;13.238;2023-08-01T18:36:45;2.27;;;1.23;;
32329;SDS011;18807;52.434;13.238;2023-08-01T18:44:20;1.02;;;0.88;;
32329;SDS011;18807;52.434;13.238;2023-08-01T18:51:56;2.67;;;1.53;;
32329;SDS011;18807;52.434;13.238;2023-08-01T18:59:31;1.77;;;1.25;;
32329;SDS011;18807;52.434;13.238;2023-08-01T19:14:41;1.98;;;1.45;;
32329;SDS011;18807;52.434;13.238;2023-08-01T19:22:16;1.67;;;1.50;;
32329;SDS011;18807;52.434;13.238;2023-08-01T19:29:51;2.35;;;1.20;;
32329;SDS011;18807;52.434;13.238;2023-08-01T19:37:27;1.90;;;1.35;;
32329;SDS011;18807;52.434;13.238;2023-08-01T19:45:02;3.45;;;2.08;;
32329;SDS011;18807;52.434;13.238;2023-08-01T19:52:41;3.13;;;1.70;;
32329;SDS011;18807;52.434;13.238;2023-08-01T20:00:19;2.90;;;1.45;;
32329;SDS011;18807;52.434;13.238;2023-08-01T20:07:55;2.63;;;2.00;;
32329;SDS011;18807;52.434;13.238;2023-08-01T20:15:30;1.48;;;1.20;;
32329;SDS011;18807;52.434;13.238;2023-08-01T20:23:05;3.67;;;1.87;;
32329;SDS011;18807;52.434;13.238;2023-08-01T20:30:39;2.83;;;1.95;;
32329;SDS011;18807;52.434;13.238;2023-08-01T20:38:15;2.50;;;1.53;;
32329;SDS011;18807;52.434;13.238;2023-08-01T20:45:49;2.38;;;1.75;;
32329;SDS011;18807;52.434;13.238;2023-08-01T20:53:25;1.77;;;1.67;;
32329;SDS011;18807;52.434;13.238;2023-08-01T21:01:00;2.90;;;1.98;;
32329;SDS011;18807;52.434;13.238;2023-08-01T21:08:37;7.38;;;2.22;;
32329;SDS011;18807;52.434;13.238;2023-08-01T21:16:30;4.47;;;2.15;;
32329;SDS011;18807;52.434;13.238;2023-08-01T21:24:05;2.07;;;1.73;;
32329;SDS011;18807;52.434;13.238;2023-08-01T21:31:41;4.20;;;1.80;;
32329;SDS011;18807;52.434;13.238;2023-08-01T21:39:17;3.10;;;1.65;;
32329;SDS011;18807;52.434;13.238;2023-08-01T21:46:51;2.35;;;1.80;;
32329;SDS011;18807;52.434;13.238;2023-08-01T21:54:27;4.17;;;1.90;;
32329;SDS011;18807;52.434;13.238;2023-08-01T22:02:01;2.15;;;1.42;;
32329;SDS011;18807;52.434;13.238;2023-08-01T22:09:36;2.60;;;1.73;;
32329;SDS011;18807;52.434;13.238;2023-08-01T22:17:10;2.33;;;1.77;;
32329;SDS011;18807;52.434;13.238;2023-08-01T22:24:46;2.23;;;2.00;;
32329;SDS011;18807;52.434;13.238;2023-08-01T22:32:20;2.10;;;1.50;;
32329;SDS011;18807;52.434;13.238;2023-08-01T22:39:56;4.30;;;1.87;;
32329;SDS011;18807;52.434;13.238;2023-08-01T22:47:30;2.35;;;1.65;;
32329;SDS011;18807;52.434;13.238;2023-08-01T22:55:07;1.80;;;1.70;;
32329;SDS011;18807;52.434;13.238;2023-08-01T23:02:41;5.43;;;2.05;;
32329;SDS011;18807;52.434;13.238;2023-08-01T23:10:17;3.70;;;1.73;;
32329;SDS011;18807;52.434;13.238;2023-08-01T23:18:10;2.67;;;1.92;;
32329;SDS011;18807;52.434;13.238;2023-08-01T23:25:45;3.75;;;2.05;;
32329;SDS011;18807;52.434;13.238;2023-08-01T23:33:19;2.65;;;1.92;;
32329;SDS011;18807;52.434;13.238;2023-08-01T23:40:55;2.23;;;1.97;;
32329;SDS011;18807;52.434;13.238;2023-08-01T23:48:29;2.72;;;1.80;;
32329;SDS011;18807;52.434;13.238;2023-08-01T23:56:05;4.35;;;2.17;;
